Iqaluit

Airport
ICAO code: 
CYFB
Summary
ICAO Region: 
NAM
Territory: 
Location: 
Iqaluit, Nunavut,
Coordinates: 
Aerial View: 
63° 45' 15.544" N, 68° 33' 1.348" W
Airport CFIT: 
Altimeter Temperature Error Correction
Airport WX: 
Low Level Turbulence
Metar
Observation
CYFB 190200Z 33029G35KT 3/4SM R34/2000V2600FT/N IC BLSN OVC018 M24/M27 A2936 RMK BLSN6SC2 VIS 1/2-1 VIS S LWR SLP949
Station
Iqaluit, N. W. T.
Date/Time
2022-01-19 02:00:00
Wind direction
330°
Wind speed
29 kts
Lowest cloud amount
overcast
Temperature
34°C
Dew point
20°C
Humidity
44%
Weather condition
n/a

Description

Airport serving Iqaluit, Nunavut.

Climatology

Tundra climate (Köppen climate classification ET) - warmest month has an average temperature of 0 - 10 degrees C.

Runways

Designator Length Width Surface Rops
17/35 2623 61 ASP Yes/Yes
Airport map: 
Aerial View: 

SKYbrary Partners:

Safety knowledge contributed by: